Time;durP1;ratioP1;P1;durP2;ratioP2;P2;SDS_P1;SDS_P2;PMS_P1;PMS_P2;Temp;Humidity;BMP_temperature;BMP_pressure;BME280_temperature;BME280_humidity;BME280_pressure;Samples;Min_cycle;Max_cycle;Signal;HPM_P1;HPM_P2
2022/03/04 00:00:07;;;;;;;16.53;9.37;;;4.80;99.90;;;;;;5022722;28;20201;-57
2022/03/04 00:02:33;;;;;;;12.40;8.33;;;4.80;99.90;;;;;;5023574;28;20255;-56
2022/03/04 00:05:00;;;;;;;16.00;9.20;;;4.80;99.90;;;;;;5021780;28;20206;-57
2022/03/04 00:07:28;;;;;;;13.43;8.70;;;4.80;99.90;;;;;;5026722;28;20623;-56
2022/03/04 00:09:55;;;;;;;12.27;8.10;;;4.80;99.90;;;;;;5030444;28;20518;-58
2022/03/04 00:12:22;;;;;;;13.97;8.87;;;4.80;99.90;;;;;;5028097;28;20610;-57
2022/03/04 00:14:49;;;;;;;11.87;8.00;;;4.80;99.90;;;;;;5029887;28;20268;-56
2022/03/04 00:17:16;;;;;;;13.47;8.67;;;4.80;99.90;;;;;;5026207;28;20202;-55
2022/03/04 00:19:43;;;;;;;11.57;8.20;;;4.80;99.90;;;;;;5028649;28;21116;-58
2022/03/04 00:22:10;;;;;;;12.53;8.23;;;4.80;99.90;;;;;;5032391;28;20289;-58
2022/03/04 00:24:36;;;;;;;14.43;8.73;;;4.80;99.90;;;;;;5029343;28;20205;-55
2022/03/04 00:27:03;;;;;;;13.70;8.63;;;4.80;99.90;;;;;;5029669;28;20322;-54
2022/03/04 00:29:30;;;;;;;15.77;8.87;;;4.90;99.90;;;;;;5026400;28;20307;-57
2022/03/04 00:31:57;;;;;;;13.63;9.00;;;5.00;99.90;;;;;;5031371;28;20300;-57
2022/03/04 00:34:25;;;;;;;13.40;9.23;;;4.90;99.90;;;;;;5042908;28;20214;-56
2022/03/04 00:36:52;;;;;;;14.47;8.73;;;4.90;99.90;;;;;;5027208;28;20241;-57
2022/03/04 00:39:19;;;;;;;14.73;9.00;;;4.70;99.90;;;;;;5030628;28;20213;-56
2022/03/04 00:41:46;;;;;;;15.13;8.60;;;4.70;99.90;;;;;;5030647;28;20198;-56
2022/03/04 00:44:12;;;;;;;15.73;8.60;;;4.60;99.90;;;;;;5027847;28;20273;-55
2022/03/04 00:46:40;;;;;;;15.13;9.40;;;4.60;99.90;;;;;;5028234;28;20196;-57
2022/03/04 00:49:07;;;;;;;15.40;9.10;;;4.50;99.90;;;;;;5027820;28;20583;-57
2022/03/04 00:51:33;;;;;;;13.57;8.50;;;4.50;99.90;;;;;;5029961;28;20257;-57
2022/03/04 00:54:00;;;;;;;12.80;9.03;;;4.50;99.90;;;;;;5023855;28;20207;-57
2022/03/04 00:56:27;;;;;;;14.97;8.93;;;4.50;99.90;;;;;;5029090;28;20253;-58
2022/03/04 00:58:54;;;;;;;13.40;8.60;;;4.50;99.90;;;;;;5027489;28;20213;-57
2022/03/04 01:01:21;;;;;;;14.20;9.43;;;4.50;99.90;;;;;;5026708;28;20203;-56
2022/03/04 01:03:48;;;;;;;12.27;8.37;;;4.60;99.90;;;;;;5032737;28;20204;-56
2022/03/04 01:06:15;;;;;;;14.50;8.67;;;4.70;99.90;;;;;;5029558;28;20232;-57
2022/03/04 01:08:42;;;;;;;15.30;9.17;;;4.70;99.90;;;;;;5035476;28;20201;-57
2022/03/04 01:11:10;;;;;;;15.53;9.20;;;4.60;99.90;;;;;;5026328;28;20234;-57
2022/03/04 01:13:37;;;;;;;13.70;8.83;;;4.50;99.90;;;;;;5030025;28;20667;-58
2022/03/04 01:16:04;;;;;;;16.03;9.33;;;4.50;99.90;;;;;;5026318;28;20704;-56
2022/03/04 01:18:31;;;;;;;14.90;9.17;;;4.30;99.90;;;;;;5031117;28;20253;-57
2022/03/04 01:20:58;;;;;;;15.10;8.93;;;4.30;99.90;;;;;;5031271;28;20215;-56
2022/03/04 01:23:25;;;;;;;13.70;8.80;;;4.30;99.90;;;;;;5030312;28;20296;-57
2022/03/04 01:25:52;;;;;;;17.27;9.57;;;4.20;99.90;;;;;;5028994;28;20303;-58
2022/03/04 01:28:20;;;;;;;14.67;8.67;;;4.10;99.90;;;;;;5028726;28;20595;-56
2022/03/04 01:30:48;;;;;;;13.73;9.00;;;4.10;99.90;;;;;;5022926;28;20960;-57
2022/03/04 01:33:15;;;;;;;13.53;8.97;;;4.00;99.90;;;;;;5026383;28;20208;-57
2022/03/04 01:35:42;;;;;;;11.83;8.23;;;3.90;99.90;;;;;;5032184;28;20208;-55
2022/03/04 01:38:09;;;;;;;17.30;10.10;;;3.90;99.90;;;;;;5026858;28;20279;-57
2022/03/04 01:40:37;;;;;;;16.00;9.90;;;3.90;99.90;;;;;;5027986;28;20592;-57
2022/03/04 01:43:04;;;;;;;16.37;9.37;;;3.90;99.90;;;;;;5028275;28;20197;-57
2022/03/04 01:45:31;;;;;;;15.17;9.07;;;3.90;99.90;;;;;;5030295;28;20209;-56
2022/03/04 01:47:57;;;;;;;16.90;9.27;;;4.00;99.90;;;;;;5027669;28;20206;-56
2022/03/04 01:50:25;;;;;;;15.80;9.60;;;4.10;99.90;;;;;;5021731;28;20319;-56
2022/03/04 01:52:53;;;;;;;14.43;9.13;;;4.20;99.90;;;;;;5030011;28;20222;-56
2022/03/04 01:55:20;;;;;;;13.93;8.73;;;4.30;99.90;;;;;;5027244;28;20217;-57
2022/03/04 01:57:47;;;;;;;18.17;9.70;;;4.40;99.90;;;;;;5031492;28;20292;-57
2022/03/04 02:00:15;;;;;;;16.37;9.53;;;4.40;99.90;;;;;;5029428;28;20706;-57
2022/03/04 02:02:43;;;;;;;13.87;9.27;;;4.40;99.90;;;;;;5031096;28;20203;-58
2022/03/04 02:05:15;;;;;;;13.60;8.17;;;4.40;99.90;;;;;;5024505;28;20216;-56
2022/03/04 02:07:42;;;;;;;18.03;8.83;;;4.30;99.90;;;;;;5026230;28;20301;-57
2022/03/04 02:10:10;;;;;;;12.27;8.37;;;4.40;99.90;;;;;;5026275;28;20698;-56
2022/03/04 02:12:37;;;;;;;15.97;8.60;;;4.40;99.90;;;;;;5032473;28;20291;-56
2022/03/04 02:15:06;;;;;;;14.13;9.27;;;4.30;99.90;;;;;;5031779;28;20258;-57
2022/03/04 02:17:34;;;;;;;14.57;10.00;;;4.20;99.90;;;;;;5028792;28;20235;-56
2022/03/04 02:20:03;;;;;;;15.57;8.97;;;4.10;99.90;;;;;;5025077;28;20212;-58
2022/03/04 02:22:33;;;;;;;17.17;9.00;;;4.00;99.90;;;;;;5028066;28;20646;-57
2022/03/04 02:25:02;;;;;;;16.83;10.13;;;3.70;99.90;;;;;;5027422;28;20215;-57
2022/03/04 02:27:29;;;;;;;13.93;9.00;;;3.60;99.90;;;;;;5028567;28;20302;-56
2022/03/04 02:29:56;;;;;;;18.23;9.07;;;3.70;99.90;;;;;;5025603;28;20209;-56
2022/03/04 02:32:22;;;;;;;16.40;9.10;;;3.60;99.90;;;;;;5021432;28;20306;-55
2022/03/04 02:34:49;;;;;;;18.67;9.03;;;3.60;99.90;;;;;;5024929;28;20280;-57
2022/03/04 02:37:18;;;;;;;17.40;9.27;;;3.60;99.90;;;;;;5030147;28;20209;-57
2022/03/04 02:39:45;;;;;;;14.43;9.17;;;3.60;99.90;;;;;;5026926;28;20221;-57
2022/03/04 02:42:12;;;;;;;13.43;8.40;;;3.40;99.90;;;;;;5024308;28;20675;-56
2022/03/04 02:44:38;;;;;;;14.17;8.93;;;3.40;99.90;;;;;;5026242;28;20196;-57
2022/03/04 02:47:05;;;;;;;14.67;9.77;;;3.40;99.90;;;;;;5024097;28;20651;-57
2022/03/04 02:49:32;;;;;;;13.03;9.27;;;3.30;99.90;;;;;;5022945;28;20740;-57
2022/03/04 02:51:59;;;;;;;17.30;9.43;;;3.30;99.90;;;;;;5029405;28;20252;-56
2022/03/04 02:54:26;;;;;;;14.00;8.83;;;3.20;99.90;;;;;;5028927;28;20218;-56
2022/03/04 02:56:53;;;;;;;14.93;9.37;;;3.20;99.90;;;;;;5030247;28;20210;-57
2022/03/04 02:59:19;;;;;;;16.33;9.00;;;3.30;99.90;;;;;;5025102;28;20376;-56
2022/03/04 03:01:46;;;;;;;19.13;9.70;;;3.20;99.90;;;;;;5024830;28;20302;-56
2022/03/04 03:04:14;;;;;;;16.67;10.13;;;3.20;99.90;;;;;;5020646;28;20727;-57
2022/03/04 03:06:40;;;;;;;16.17;9.27;;;3.20;99.90;;;;;;5029599;28;20628;-55
2022/03/04 03:09:07;;;;;;;14.93;10.00;;;3.20;99.90;;;;;;5027061;28;20827;-56
2022/03/04 03:11:34;;;;;;;14.03;8.80;;;3.00;99.90;;;;;;5028288;28;20781;-57
2022/03/04 03:14:01;;;;;;;15.17;9.50;;;3.00;99.90;;;;;;5026968;28;20220;-56
2022/03/04 03:16:28;;;;;;;15.73;10.57;;;3.00;99.90;;;;;;5031132;28;20639;-57
2022/03/04 03:18:55;;;;;;;16.93;9.70;;;2.90;99.90;;;;;;5029094;28;20574;-57
2022/03/04 03:21:21;;;;;;;14.80;10.07;;;2.90;99.90;;;;;;5038609;28;20314;-56
2022/03/04 03:23:48;;;;;;;14.80;9.63;;;2.90;99.90;;;;;;5030423;28;20203;-56
2022/03/04 03:26:15;;;;;;;15.10;8.97;;;2.90;99.90;;;;;;5025837;28;20202;-56
2022/03/04 03:28:42;;;;;;;15.10;9.40;;;2.90;99.90;;;;;;5011710;28;20249;-57
2022/03/04 03:31:09;;;;;;;16.53;9.40;;;2.80;99.90;;;;;;5022460;28;20421;-58
2022/03/04 03:33:37;;;;;;;17.13;10.40;;;2.70;99.90;;;;;;5026236;28;20210;-59
2022/03/04 03:36:04;;;;;;;15.87;10.00;;;2.80;99.90;;;;;;5027260;28;20230;-56
2022/03/04 03:38:31;;;;;;;15.40;9.87;;;2.80;99.90;;;;;;5025762;28;20735;-56
2022/03/04 03:40:59;;;;;;;16.93;9.60;;;2.80;99.90;;;;;;5022979;28;20288;-62
2022/03/04 03:43:39;;;;;;;15.70;9.90;;;2.90;99.90;;;;;;5026493;28;20204;-58
2022/03/04 03:46:06;;;;;;;15.97;10.70;;;2.80;99.90;;;;;;5042616;28;20725;-56
2022/03/04 03:48:33;;;;;;;16.07;9.57;;;2.80;99.90;;;;;;5025347;28;20201;-57
2022/03/04 03:51:01;;;;;;;15.80;9.70;;;2.80;99.90;;;;;;5028495;28;20210;-57
2022/03/04 03:53:28;;;;;;;17.57;10.27;;;2.70;99.90;;;;;;5028337;28;20565;-57
2022/03/04 03:55:55;;;;;;;18.90;10.60;;;2.60;99.90;;;;;;5027384;28;20680;-56
2022/03/04 03:58:22;;;;;;;18.30;10.47;;;2.60;99.90;;;;;;5031069;28;20211;-56
2022/03/04 04:00:49;;;;;;;21.30;10.30;;;2.60;99.90;;;;;;5024237;28;20690;-56
2022/03/04 04:03:16;;;;;;;16.17;9.73;;;2.70;99.90;;;;;;5024631;28;20704;-59
2022/03/04 04:05:43;;;;;;;18.80;9.50;;;2.70;99.90;;;;;;5024734;28;20772;-57
2022/03/04 04:08:10;;;;;;;18.80;11.40;;;2.60;99.90;;;;;;5029176;28;20689;-56
2022/03/04 04:10:37;;;;;;;17.67;9.87;;;2.60;99.90;;;;;;5028925;28;20244;-57
2022/03/04 04:13:03;;;;;;;16.37;9.53;;;2.60;99.90;;;;;;5028565;28;20211;-57
2022/03/04 04:15:30;;;;;;;18.00;11.33;;;2.60;99.90;;;;;;5027599;28;20309;-58
2022/03/04 04:17:57;;;;;;;16.73;11.20;;;2.60;99.90;;;;;;5042351;28;20266;-58
2022/03/04 04:20:24;;;;;;;17.10;10.80;;;2.50;99.90;;;;;;5024225;28;20334;-57
2022/03/04 04:22:51;;;;;;;15.77;9.73;;;2.50;99.90;;;;;;5026391;28;20231;-56
2022/03/04 04:25:18;;;;;;;18.70;11.20;;;2.50;99.90;;;;;;5025865;28;20207;-56
2022/03/04 04:27:45;;;;;;;16.30;10.30;;;2.60;99.90;;;;;;5028029;28;20206;-58
2022/03/04 04:30:12;;;;;;;21.50;11.60;;;2.60;99.90;;;;;;5024450;28;20715;-57
2022/03/04 04:32:39;;;;;;;17.97;10.63;;;2.70;99.90;;;;;;5024791;28;20296;-55
2022/03/04 04:35:06;;;;;;;17.53;10.00;;;2.60;99.90;;;;;;5027062;28;20245;-58
2022/03/04 04:37:33;;;;;;;18.97;10.97;;;2.70;99.90;;;;;;5024953;28;20667;-55
2022/03/04 04:40:00;;;;;;;17.23;10.20;;;2.60;99.90;;;;;;5025734;28;20583;-62
2022/03/04 04:42:27;;;;;;;15.37;10.23;;;2.50;99.90;;;;;;5030995;28;20697;-58
2022/03/04 04:44:54;;;;;;;18.17;10.33;;;2.50;99.90;;;;;;5025683;28;20626;-58
2022/03/04 04:47:20;;;;;;;20.70;10.93;;;2.40;99.90;;;;;;5023211;28;20818;-58
2022/03/04 04:49:47;;;;;;;21.63;10.87;;;2.40;99.90;;;;;;5022569;28;20292;-58
2022/03/04 04:52:14;;;;;;;19.17;10.63;;;2.40;99.90;;;;;;5023238;28;20314;-58
2022/03/04 04:54:42;;;;;;;20.40;11.10;;;2.40;99.90;;;;;;5027686;28;20409;-58
2022/03/04 04:57:08;;;;;;;18.83;11.27;;;2.40;99.90;;;;;;5041850;28;20239;-56
2022/03/04 04:59:35;;;;;;;25.07;11.87;;;2.40;99.90;;;;;;5022129;28;20220;-56
2022/03/04 05:02:02;;;;;;;16.87;10.60;;;2.40;99.90;;;;;;5022092;28;20789;-55
2022/03/04 05:04:30;;;;;;;17.87;10.57;;;2.30;99.90;;;;;;5029605;28;20207;-56
2022/03/04 05:06:57;;;;;;;18.80;11.23;;;2.20;99.90;;;;;;5029495;28;20205;-56
2022/03/04 05:09:24;;;;;;;20.33;11.30;;;2.20;99.90;;;;;;5033960;28;20237;-58
2022/03/04 05:11:51;;;;;;;18.00;10.87;;;2.10;99.90;;;;;;5031173;28;20243;-57
2022/03/04 05:14:18;;;;;;;20.93;11.00;;;2.10;99.90;;;;;;5029623;28;20210;-56
2022/03/04 05:16:45;;;;;;;17.90;10.20;;;2.10;99.90;;;;;;5016925;28;20211;-57
2022/03/04 05:19:12;;;;;;;17.00;10.20;;;2.10;99.90;;;;;;5016559;28;20229;-56
2022/03/04 05:21:39;;;;;;;18.80;11.37;;;2.10;99.90;;;;;;5031168;28;20210;-56
2022/03/04 05:24:08;;;;;;;21.30;11.03;;;2.00;99.90;;;;;;5034486;28;20296;-56
2022/03/04 05:26:37;;;;;;;21.20;11.53;;;2.00;99.90;;;;;;5029403;28;20189;-61
2022/03/04 05:29:09;;;;;;;22.03;11.80;;;2.00;99.90;;;;;;5030339;28;20606;-56
2022/03/04 05:31:37;;;;;;;23.57;12.03;;;2.00;99.90;;;;;;5030142;28;20629;-56
2022/03/04 05:34:04;;;;;;;18.70;12.30;;;2.00;99.90;;;;;;5029558;28;20287;-57
2022/03/04 05:36:32;;;;;;;18.10;11.97;;;2.10;99.90;;;;;;5028046;28;20579;-56
2022/03/04 05:38:59;;;;;;;19.43;11.50;;;2.00;99.90;;;;;;5016425;28;20210;-56
2022/03/04 05:41:26;;;;;;;18.10;11.43;;;2.10;99.90;;;;;;5031545;28;20195;-56
2022/03/04 05:43:53;;;;;;;18.77;10.97;;;2.10;99.90;;;;;;5032210;28;20591;-56
2022/03/04 05:46:20;;;;;;;18.57;11.43;;;2.00;15.40;;;;;;5027267;28;20591;-55
2022/03/04 05:48:48;;;;;;;17.73;10.90;;;2.10;5.00;;;;;;5028518;28;20723;-56
2022/03/04 05:51:15;;;;;;;21.03;11.57;;;2.00;6.50;;;;;;5029265;28;20549;-56
2022/03/04 05:53:42;;;;;;;22.70;12.43;;;2.00;19.60;;;;;;5033942;28;20209;-57
2022/03/04 05:56:09;;;;;;;19.37;12.33;;;2.00;16.30;;;;;;5027804;28;20242;-55
2022/03/04 05:58:37;;;;;;;21.73;11.53;;;2.00;14.80;;;;;;5032559;28;20753;-58
2022/03/04 06:01:08;;;;;;;21.90;12.23;;;1.90;28.50;;;;;;5024030;28;20212;-57
2022/03/04 06:03:36;;;;;;;19.17;13.10;;;1.80;56.70;;;;;;5026223;28;20202;-57
2022/03/04 06:06:04;;;;;;;22.27;11.60;;;1.80;73.00;;;;;;5027345;28;20251;-57
2022/03/04 06:08:30;;;;;;;18.20;10.77;;;1.70;87.20;;;;;;5030869;28;20199;-57
2022/03/04 06:10:58;;;;;;;20.83;11.57;;;1.80;82.70;;;;;;5027264;28;20251;-57
2022/03/04 06:13:25;;;;;;;20.17;11.70;;;1.80;72.20;;;;;;5027728;28;20211;-57
2022/03/04 06:15:52;;;;;;;21.30;12.07;;;1.70;90.90;;;;;;5027911;28;20219;-57
2022/03/04 06:18:19;;;;;;;19.77;11.80;;;1.70;95.10;;;;;;5026152;28;20661;-56
2022/03/04 06:20:46;;;;;;;19.30;11.37;;;1.60;96.00;;;;;;5022432;28;20218;-57
2022/03/04 06:23:13;;;;;;;20.00;11.73;;;1.60;99.90;;;;;;5020831;28;20202;-56
2022/03/04 06:25:40;;;;;;;23.90;12.40;;;1.60;99.90;;;;;;5027501;28;20601;-57
2022/03/04 06:28:07;;;;;;;20.57;11.83;;;1.60;99.90;;;;;;5025812;28;20199;-58
2022/03/04 06:30:38;;;;;;;17.30;11.57;;;1.60;99.90;;;;;;5031244;28;20215;-59
2022/03/04 06:35:53;;;;;;;25.13;12.37;;;1.50;99.90;;;;;;5027077;28;20208;-59
2022/03/04 06:38:21;;;;;;;20.97;11.73;;;1.60;99.90;;;;;;5029470;28;20210;-58
2022/03/04 06:40:49;;;;;;;19.37;12.27;;;1.50;99.90;;;;;;5028574;28;20246;-58
2022/03/04 06:43:16;;;;;;;18.53;10.97;;;1.50;99.90;;;;;;5029428;28;20209;-58
2022/03/04 06:45:46;;;;;;;23.23;12.33;;;1.60;99.90;;;;;;5030895;28;20306;-58
2022/03/04 06:48:14;;;;;;;21.17;12.73;;;1.60;99.90;;;;;;5029122;28;20266;-58
2022/03/04 06:50:41;;;;;;;25.10;13.50;;;1.60;99.90;;;;;;5017004;28;20200;-57
2022/03/04 06:53:08;;;;;;;19.87;12.23;;;1.70;99.90;;;;;;5028056;28;20212;-62
2022/03/04 06:55:35;;;;;;;22.27;12.90;;;1.80;99.90;;;;;;5030721;28;20215;-58
2022/03/04 06:58:02;;;;;;;20.30;11.40;;;1.90;99.90;;;;;;5030272;28;20214;-57
2022/03/04 07:00:29;;;;;;;25.27;13.53;;;2.00;99.90;;;;;;5024648;28;20242;-57
2022/03/04 07:02:58;;;;;;;23.87;13.60;;;2.10;90.00;;;;;;5028115;28;20207;-57
2022/03/04 07:05:25;;;;;;;20.50;12.47;;;2.20;67.40;;;;;;5031613;28;20219;-57
2022/03/04 07:07:54;;;;;;;23.30;12.67;;;2.30;55.20;;;;;;5029062;28;20287;-57
2022/03/04 07:10:21;;;;;;;22.03;13.03;;;2.40;37.70;;;;;;5028912;28;20240;-57
2022/03/04 07:12:49;;;;;;;22.63;13.10;;;2.40;51.10;;;;;;5030187;28;20220;-57
2022/03/04 07:15:17;;;;;;;22.63;12.63;;;2.40;31.00;;;;;;5030710;28;20205;-58
2022/03/04 07:17:45;;;;;;;22.97;13.37;;;2.50;23.30;;;;;;5029877;28;20190;-56
2022/03/04 07:20:13;;;;;;;26.37;14.40;;;2.50;27.70;;;;;;5030054;28;20577;-56
2022/03/04 07:22:42;;;;;;;20.70;13.33;;;2.40;20.20;;;;;;5029859;28;20211;-56
2022/03/04 07:25:15;;;;;;;24.53;12.80;;;2.60;14.70;;;;;;5029946;28;20628;-56
2022/03/04 07:27:42;;;;;;;24.93;12.60;;;2.60;23.50;;;;;;5028540;28;20200;-56
2022/03/04 07:30:15;;;;;;;21.57;12.43;;;2.70;20.70;;;;;;5027810;28;20597;-57
2022/03/04 07:32:43;;;;;;;20.77;12.87;;;2.80;4.30;;;;;;5029214;28;20209;-57
2022/03/04 07:35:11;;;;;;;25.70;13.83;;;2.90;1.00;;;;;;5030475;28;20647;-57
2022/03/04 07:37:40;;;;;;;18.97;12.37;;;3.00;1.00;;;;;;5015715;28;20209;-58
2022/03/04 07:40:09;;;;;;;22.20;13.03;;;3.10;1.00;;;;;;5028245;28;20748;-57
2022/03/04 07:42:37;;;;;;;23.27;12.77;;;3.20;1.00;;;;;;5027603;28;20570;-58
2022/03/04 07:45:06;;;;;;;21.50;13.87;;;3.40;1.00;;;;;;5028865;28;20286;-56
2022/03/04 07:47:33;;;;;;;24.63;12.87;;;3.60;1.00;;;;;;5025995;28;20301;-56
2022/03/04 07:50:00;;;;;;;23.97;12.13;;;3.70;1.00;;;;;;5028813;28;20236;-55
2022/03/04 07:52:31;;;;;;;24.80;13.50;;;3.80;1.00;;;;;;5028734;28;20212;-55
2022/03/04 07:55:05;;;;;;;23.90;13.07;;;3.90;1.00;;;;;;5030390;28;20197;-55
2022/03/04 07:57:32;;;;;;;22.70;11.87;;;4.10;1.00;;;;;;5028695;28;20211;-56
2022/03/04 07:59:58;;;;;;;23.07;12.73;;;4.10;1.00;;;;;;5027113;28;20711;-56
2022/03/04 08:02:25;;;;;;;22.90;12.50;;;4.20;1.00;;;;;;5029343;28;20206;-55
2022/03/04 08:04:52;;;;;;;19.67;13.20;;;4.30;1.00;;;;;;5028598;28;20284;-56
2022/03/04 08:07:19;;;;;;;23.77;13.93;;;4.60;1.00;;;;;;5028317;28;20702;-58
2022/03/04 08:09:46;;;;;;;22.10;12.67;;;4.60;1.00;;;;;;5016264;28;20232;-56
2022/03/04 08:12:13;;;;;;;18.30;12.30;;;4.80;1.00;;;;;;5029132;28;20520;-57
2022/03/04 08:14:40;;;;;;;21.97;12.50;;;4.80;1.00;;;;;;5029386;28;20221;-56
2022/03/04 08:17:07;;;;;;;21.20;12.83;;;5.20;1.00;;;;;;5026590;28;20686;-56
2022/03/04 08:19:35;;;;;;;19.10;12.33;;;5.20;1.00;;;;;;5012870;28;20201;-57
2022/03/04 08:22:03;;;;;;;23.87;13.63;;;5.60;1.00;;;;;;5028936;28;20222;-57
2022/03/04 08:24:50;;;;;;;21.97;12.33;;;5.80;1.00;;;;;;5029748;28;20969;-57
2022/03/04 08:27:17;;;;;;;21.57;12.60;;;6.00;1.00;;;;;;5030272;28;20207;-57
2022/03/04 08:29:44;;;;;;;19.03;13.30;;;6.30;1.00;;;;;;5026718;28;20950;-57
2022/03/04 08:32:11;;;;;;;21.13;12.57;;;6.40;1.00;;;;;;5028561;28;20207;-57
2022/03/04 08:34:37;;;;;;;16.13;11.63;;;6.50;1.00;;;;;;5026066;28;20204;-56
2022/03/04 08:37:04;;;;;;;19.33;12.50;;;6.70;1.00;;;;;;5027295;28;20197;-57
2022/03/04 08:39:31;;;;;;;18.30;11.70;;;6.80;1.00;;;;;;5030374;28;20211;-56
2022/03/04 08:42:03;;;;;;;25.43;13.70;;;7.00;1.00;;;;;;5020075;28;20503;-57
2022/03/04 08:44:30;;;;;;;19.97;12.03;;;6.90;1.00;;;;;;5032811;28;20205;-56
2022/03/04 08:46:57;;;;;;;23.20;13.40;;;7.00;99.90;;;;;;5033145;28;20204;-57
2022/03/04 08:49:23;;;;;;;21.17;12.97;;;7.20;99.90;;;;;;5018834;28;20277;-58
2022/03/04 08:51:50;;;;;;;20.47;12.67;;;7.30;99.90;;;;;;5031169;28;20263;-55
2022/03/04 08:54:17;;;;;;;21.67;12.00;;;7.30;99.90;;;;;;5033268;28;20211;-56
2022/03/04 08:56:44;;;;;;;19.73;13.33;;;7.50;99.90;;;;;;5033944;28;20701;-57
2022/03/04 08:59:12;;;;;;;19.13;12.80;;;7.70;99.90;;;;;;5030741;28;20206;-58
2022/03/04 09:01:39;;;;;;;20.03;12.30;;;7.70;99.90;;;;;;5027465;28;20332;-58
2022/03/04 09:04:06;;;;;;;20.43;12.23;;;8.20;99.90;;;;;;5017919;28;20325;-57
2022/03/04 09:06:33;;;;;;;22.70;12.30;;;8.50;99.90;;;;;;5020300;28;20557;-58
2022/03/04 09:09:00;;;;;;;17.87;11.77;;;8.80;1.00;;;;;;5019563;28;20249;-58
2022/03/04 09:11:26;;;;;;;20.93;12.37;;;9.10;99.90;;;;;;5026035;28;20237;-58
2022/03/04 09:13:53;;;;;;;19.97;13.17;;;9.40;1.00;;;;;;5031479;28;20320;-58
2022/03/04 09:16:21;;;;;;;20.10;12.27;;;9.70;1.00;;;;;;5024739;28;20208;-58
2022/03/04 09:18:48;;;;;;;18.67;12.40;;;9.50;99.90;;;;;;5019152;28;20297;-57
2022/03/04 09:21:14;;;;;;;17.80;11.73;;;9.30;1.00;;;;;;5015075;28;20218;-58
2022/03/04 09:23:41;;;;;;;16.83;11.33;;;9.40;1.00;;;;;;5026585;28;20648;-57
2022/03/04 09:26:08;;;;;;;19.60;13.00;;;9.60;99.90;;;;;;5018236;28;20220;-58
2022/03/04 09:28:35;;;;;;;19.53;12.87;;;9.80;99.90;;;;;;5027379;28;20278;-58
2022/03/04 09:31:07;;;;;;;19.30;12.77;;;10.00;1.00;;;;;;5025359;28;20205;-58
2022/03/04 09:33:35;;;;;;;19.23;12.37;;;10.50;99.90;;;;;;5024798;28;20654;-56
2022/03/04 09:36:02;;;;;;;15.90;12.30;;;10.50;99.90;;;;;;5026966;28;20681;-57
2022/03/04 09:38:29;;;;;;;18.90;12.67;;;10.50;99.90;;;;;;5027888;28;20201;-57
2022/03/04 09:40:57;;;;;;;17.20;12.07;;;10.60;99.90;;;;;;5024131;28;20311;-57
2022/03/04 09:43:24;;;;;;;20.23;12.60;;;10.40;99.90;;;;;;5030366;28;20213;-57
2022/03/04 09:45:51;;;;;;;19.70;13.63;;;10.20;99.90;;;;;;5023959;28;20293;-57
2022/03/04 09:48:18;;;;;;;20.23;13.63;;;10.10;99.90;;;;;;5022317;28;20536;-57
2022/03/04 09:50:47;;;;;;;22.97;14.60;;;10.30;99.90;;;;;;5028403;28;20503;-56
2022/03/04 09:53:15;;;;;;;21.77;13.90;;;10.50;99.90;;;;;;5032498;28;20199;-57
2022/03/04 09:55:43;;;;;;;22.20;14.87;;;10.50;99.90;;;;;;5031432;28;20202;-58
2022/03/04 09:58:12;;;;;;;22.27;13.37;;;10.60;99.90;;;;;;5028782;28;20201;-57
2022/03/04 10:00:40;;;;;;;25.33;15.27;;;10.70;99.90;;;;;;5028972;28;20276;-57
2022/03/04 10:03:40;;;;;;;24.20;15.80;;;10.80;99.90;;;;;;5029005;28;20531;-57
2022/03/04 10:06:07;;;;;;;22.00;14.50;;;10.00;99.90;;;;;;5030327;28;20200;-57
2022/03/04 10:08:48;;;;;;;22.53;14.40;;;10.70;99.90;;;;;;5032979;28;20240;-57
2022/03/04 10:11:30;;;;;;;24.83;14.60;;;11.10;99.90;;;;;;5030725;28;20338;-57
2022/03/04 10:14:08;;;;;;;19.80;12.33;;;11.10;99.90;;;;;;5032780;28;20545;-58
2022/03/04 10:16:38;;;;;;;19.87;13.53;;;10.90;99.90;;;;;;5033934;28;20259;-57
2022/03/04 10:19:16;;;;;;;20.63;13.33;;;10.60;99.90;;;;;;5031222;28;20201;-57
2022/03/04 10:22:05;;;;;;;23.50;14.13;;;11.00;99.90;;;;;;5030386;28;20229;-58
2022/03/04 10:24:38;;;;;;;20.50;12.93;;;11.10;99.90;;;;;;5033099;28;20613;-57
2022/03/04 10:27:15;;;;;;;25.07;15.60;;;10.90;99.90;;;;;;5032677;28;20609;-58
2022/03/04 10:29:45;;;;;;;20.23;13.87;;;10.80;99.90;;;;;;5030783;28;20507;-57
2022/03/04 10:32:14;;;;;;;21.53;13.50;;;10.80;99.90;;;;;;5030546;28;20209;-56
2022/03/04 10:34:55;;;;;;;21.77;13.33;;;10.60;99.90;;;;;;5033234;28;20213;-56
2022/03/04 10:37:42;;;;;;;22.30;14.43;;;10.80;99.90;;;;;;5029464;28;20205;-56
2022/03/04 10:40:23;;;;;;;21.60;14.07;;;10.70;99.90;;;;;;5007854;28;20216;-57
2022/03/04 10:43:05;;;;;;;23.50;14.60;;;11.00;99.90;;;;;;5025637;28;20201;-57
2022/03/04 10:45:34;;;;;;;21.37;13.90;;;11.00;99.90;;;;;;5026442;28;20252;-57
2022/03/04 10:48:18;;;;;;;20.63;13.33;;;11.10;99.90;;;;;;5025991;28;20211;-58
2022/03/04 10:50:51;;;;;;;21.93;13.57;;;11.50;99.90;;;;;;5022400;28;20239;-57
2022/03/04 10:53:28;;;;;;;20.60;13.73;;;11.20;99.90;;;;;;5015808;28;20245;-57
2022/03/04 10:55:57;;;;;;;20.03;13.43;;;11.30;99.90;;;;;;5026450;28;20259;-56
2022/03/04 10:58:33;;;;;;;21.87;13.70;;;11.10;99.90;;;;;;5015604;28;20205;-56
2022/03/04 11:01:08;;;;;;;21.03;14.20;;;11.20;99.90;;;;;;5021178;28;20253;-57
2022/03/04 11:03:37;;;;;;;21.20;12.47;;;11.30;99.90;;;;;;5022526;28;20219;-57
2022/03/04 11:06:12;;;;;;;20.77;13.63;;;11.30;99.90;;;;;;5027179;28;20579;-56
2022/03/04 11:08:40;;;;;;;20.50;12.40;;;11.40;99.90;;;;;;5014481;28;20224;-57
2022/03/04 11:11:07;;;;;;;23.67;15.33;;;11.60;99.90;;;;;;5031033;28;20198;-57
2022/03/04 11:13:35;;;;;;;21.10;13.40;;;11.80;99.90;;;;;;5022346;28;20293;-56
2022/03/04 11:16:04;;;;;;;20.80;15.20;;;11.80;99.90;;;;;;5029587;28;20206;-57
2022/03/04 11:18:33;;;;;;;19.17;14.10;;;11.70;99.90;;;;;;5027189;28;20202;-57
2022/03/04 11:21:00;;;;;;;24.17;13.27;;;11.60;99.90;;;;;;5018129;28;20792;-56
2022/03/04 11:23:30;;;;;;;22.07;13.53;;;11.80;99.90;;;;;;5025706;28;20203;-57
2022/03/04 11:26:02;;;;;;;22.20;14.00;;;12.00;99.90;;;;;;5023118;28;20671;-57
2022/03/04 11:28:42;;;;;;;18.67;13.30;;;12.30;99.90;;;;;;5023614;28;20679;-57
2022/03/04 11:31:12;;;;;;;21.60;13.40;;;12.10;99.90;;;;;;5025942;28;20290;-57
2022/03/04 11:33:44;;;;;;;17.57;13.07;;;12.40;99.90;;;;;;5029670;28;20198;-60
2022/03/04 11:36:16;;;;;;;20.07;12.67;;;12.20;99.90;;;;;;5024835;28;20568;-57
2022/03/04 11:38:48;;;;;;;22.37;14.33;;;12.50;99.90;;;;;;5026460;28;20215;-57
2022/03/04 11:41:28;;;;;;;21.80;14.73;;;12.60;99.90;;;;;;5025422;28;20224;-57
2022/03/04 11:44:00;;;;;;;20.93;12.80;;;12.80;99.90;;;;;;5023143;28;20289;-57
2022/03/04 11:46:41;;;;;;;19.60;13.13;;;12.80;99.90;;;;;;5025345;28;20282;-57
2022/03/04 11:49:44;;;;;;;19.73;13.43;;;13.40;99.90;;;;;;5029350;28;20253;-59
2022/03/04 11:52:21;;;;;;;18.87;12.97;;;13.20;99.90;;;;;;5024825;28;20220;-57
2022/03/04 11:54:51;;;;;;;23.03;13.27;;;13.00;99.90;;;;;;5025271;28;20219;-57
2022/03/04 11:57:27;;;;;;;20.10;12.50;;;13.50;99.90;;;;;;5023319;28;20195;-58
2022/03/04 12:00:00;;;;;;;20.77;12.83;;;13.70;99.90;;;;;;5026433;28;20231;-59
2022/03/04 12:02:31;;;;;;;18.33;12.57;;;14.60;99.90;;;;;;5025038;28;20283;-59
2022/03/04 12:05:23;;;;;;;18.90;13.00;;;14.50;99.90;;;;;;5035304;28;20192;-59
2022/03/04 12:08:05;;;;;;;17.27;12.70;;;13.80;99.90;;;;;;5028411;28;20201;-58
2022/03/04 12:10:37;;;;;;;18.17;12.57;;;14.30;99.90;;;;;;5025457;28;20259;-58
2022/03/04 12:13:11;;;;;;;18.30;11.90;;;14.40;99.90;;;;;;5034926;28;20669;-58
2022/03/04 12:15:50;;;;;;;16.67;12.70;;;14.30;99.90;;;;;;5039110;28;20208;-57
2022/03/04 12:18:25;;;;;;;17.70;12.80;;;14.90;99.90;;;;;;5034571;28;20230;-59
2022/03/04 12:21:07;;;;;;;18.17;12.57;;;14.90;99.90;;;;;;5032117;28;20260;-57
2022/03/04 12:23:36;;;;;;;20.03;12.70;;;14.60;99.90;;;;;;5033397;28;20205;-57
2022/03/04 12:26:26;;;;;;;17.37;12.77;;;14.50;99.90;;;;;;5034623;28;20197;-57
2022/03/04 12:29:11;;;;;;;17.93;13.57;;;14.30;99.90;;;;;;5021252;28;20323;-57
2022/03/04 12:31:40;;;;;;;17.00;12.90;;;14.90;99.90;;;;;;5030075;28;20199;-58
2022/03/04 12:34:30;;;;;;;19.07;12.37;;;15.20;99.90;;;;;;5036112;28;20200;-57
2022/03/04 12:37:05;;;;;;;19.10;12.63;;;15.40;99.90;;;;;;5020137;28;20294;-58
2022/03/04 12:39:37;;;;;;;16.80;11.73;;;15.90;99.90;;;;;;5021203;28;20301;-57
2022/03/04 12:42:07;;;;;;;18.13;13.10;;;15.50;99.90;;;;;;5022231;28;20721;-57
2022/03/04 12:44:35;;;;;;;17.20;13.23;;;15.30;99.90;;;;;;5018229;28;20337;-60
2022/03/04 12:47:03;;;;;;;16.93;12.40;;;15.20;99.90;;;;;;4985898;28;20203;-59
2022/03/04 12:49:33;;;;;;;18.70;12.83;;;15.40;99.90;;;;;;5040233;28;20202;-59